Dade City, FL

2:39 PM EDT on March 31, 2015 (GMT -0400)
Dade City at Blanton | | Change Station
CLOSE
Current Station
Personal Weather Station
Location: Dade City, FL
Elevation: 170 ft
Nearby Weather Stations

Elev 170 ft 28.40 °N, 82.25 °W | Updated 3 minutes ago

Partly Cloudy
Partly Cloudy
80.7 °F
Feels Like 83 °F
N
3.0
Wind Variable Wind from West
Gusts 6.0 mph

Today
High -- | Low -- °F
--% Chance of Precip.
Yesterday
High -- | Low -- °F
Precip. -- in
7:20 AM 7:46 PM
Waxing Gibbous, 88% visible
Pressure 30.13 in
Visibility 10.0 miles
Clouds Scattered Clouds 4100 ft
Scattered Clouds 5500 ft
Mostly Cloudy 8000 ft
Heat Index 83 °F
Dew Point 66 °F
Humidity 61%
Rainfall 0.00 in
Snow Depth Not available.
UV 7 out of 12
Pollen 9.00 out of 12
Air Quality Not available.
Flu Activity Not available.
METAR KZPH 311835Z AUTO 27010G14KT 247V307 10SM SCT041 SCT055 BKN080 27/14 A3013 RMK AO2

More Conditions Fewer Conditions

Pressure 30.13 in
Visibility 10.0 miles
Clouds Scattered Clouds 4100 ft
Scattered Clouds 5500 ft
Mostly Cloudy 8000 ft
Heat Index 83 °F
Dew Point 66 °F
Humidity 61%
Rainfall 0.00 in
Snow Depth Not available.
UV 7 out of 12
Pollen 9.00 out of 12
Air Quality Not available.
Flu Activity Not available.
METAR KZPH 311835Z AUTO 27010G14KT 247V307 10SM SCT041 SCT055 BKN080 27/14 A3013 RMK AO2

More Conditions Fewer Conditions

10-Day Weather Forecast

Almanac

Astronomy

Mar. 31, 2015 Rise Set
Actual Time
Civil Twilight
Nautical Twilight
Astronomical Twilight
Moon
Length of Visible Light
Length of Day
Tomorrow will be .
, % of the Moon is Illuminated

Today's Extremes

State Highs State Lows

Community

WunderPhotos

Upload Photos

1,809,786 photos uploaded!

WunderBlogs® & News

Nearby

Air Quality

  Air Quality AQ Index Pollutant
Not available.

Snow Depth

Station Depth Elevation

Earthquake Activity

City Distance Mag. Time & Date
Minimum magnitude displayed is 2.5.

Coastal Water Temperatures

Place Temperature

Stations

Nearby Weather Stations

Station Location Temp. Windchill Dew Point Humidity Wind Precip. Elev Updated Type